Time;durP1;ratioP1;P1;durP2;ratioP2;P2;SDS_P1;SDS_P2;PMS_P1;PMS_P2;Temp;Humidity;BMP_temperature;BMP_pressure;BME280_temperature;BME280_humidity;BME280_pressure;Samples;Min_cycle;Max_cycle;Signal;HPM_P1;HPM_P2
2022/12/28 00:01:56;;;;;;;6.63;3.78;;;;;;;;;;5040292;28;20551;-78
2022/12/28 00:04:22;;;;;;;6.28;3.15;;;;;;;;;;5040748;28;20037;-79
2022/12/28 00:06:49;;;;;;;12.80;4.70;;;;;;;;;;5040504;28;20030;-79
2022/12/28 00:09:15;;;;;;;9.40;3.88;;;;;;;;;;5040774;28;20021;-79
2022/12/28 00:11:41;;;;;;;8.55;4.03;;;;;;;;;;5040280;28;20480;-78
2022/12/28 00:14:07;;;;;;;9.35;4.13;;;;;;;;;;5040004;28;20526;-78
2022/12/28 00:16:38;;;;;;;11.68;4.13;;;;;;;;;;5039587;28;20489;-78
2022/12/28 00:19:05;;;;;;;7.68;3.75;;;;;;;;;;5039915;28;20384;-78
2022/12/28 00:21:31;;;;;;;5.30;3.38;;;;;;;;;;5039973;28;20362;-78
2022/12/28 00:23:58;;;;;;;8.07;4.57;;;;;;;;;;5039683;28;20033;-78
2022/12/28 00:26:24;;;;;;;9.75;4.55;;;;;;;;;;5038914;28;20057;-78
2022/12/28 00:28:50;;;;;;;14.18;4.40;;;;;;;;;;5038871;28;20068;-78
2022/12/28 00:31:16;;;;;;;8.20;4.28;;;;;;;;;;5038102;28;20369;-79
2022/12/28 00:33:42;;;;;;;8.00;4.07;;;;;;;;;;5038347;28;20538;-78
2022/12/28 00:36:10;;;;;;;10.90;5.00;;;;;;;;;;5019477;28;20029;-79
2022/12/28 00:38:37;;;;;;;8.75;3.95;;;;;;;;;;5037506;28;20029;-78
2022/12/28 00:41:03;;;;;;;9.10;4.47;;;;;;;;;;5038381;28;20025;-78
2022/12/28 00:43:29;;;;;;;10.02;3.88;;;;;;;;;;5038032;28;20026;-78
2022/12/28 00:45:55;;;;;;;8.32;4.30;;;;;;;;;;5037262;28;20083;-78
2022/12/28 00:48:21;;;;;;;8.20;4.20;;;;;;;;;;5037074;28;20029;-78
2022/12/28 00:50:47;;;;;;;9.93;4.15;;;;;;;;;;5036829;28;20026;-78
2022/12/28 00:53:13;;;;;;;11.65;4.30;;;;;;;;;;5036575;28;20080;-79
2022/12/28 00:55:39;;;;;;;9.13;4.93;;;;;;;;;;5036834;28;20526;-78
2022/12/28 00:58:07;;;;;;;8.63;4.13;;;;;;;;;;5037023;28;20488;-79
2022/12/28 01:00:33;;;;;;;8.88;4.43;;;;;;;;;;5036658;28;20022;-78
2022/12/28 01:02:59;;;;;;;6.28;3.90;;;;;;;;;;5036867;28;20022;-78
2022/12/28 01:05:25;;;;;;;8.10;4.75;;;;;;;;;;5018344;28;20026;-78
2022/12/28 01:07:52;;;;;;;8.98;4.88;;;;;;;;;;5037206;28;20033;-79
2022/12/28 01:10:18;;;;;;;9.10;5.50;;;;;;;;;;5036927;28;20017;-78
2022/12/28 01:12:44;;;;;;;9.85;5.03;;;;;;;;;;5037013;28;20108;-78
2022/12/28 01:15:11;;;;;;;6.53;4.60;;;;;;;;;;5036351;28;20433;-78
2022/12/28 01:17:38;;;;;;;8.30;6.38;;;;;;;;;;5036841;28;20021;-78
2022/12/28 01:20:04;;;;;;;12.30;5.53;;;;;;;;;;5037177;28;20032;-78
2022/12/28 01:22:30;;;;;;;11.15;5.65;;;;;;;;;;5044942;28;20049;-78
2022/12/28 01:24:56;;;;;;;11.00;5.95;;;;;;;;;;5043603;28;20092;-79
2022/12/28 01:27:22;;;;;;;11.15;5.35;;;;;;;;;;5044322;28;20034;-79
2022/12/28 01:29:48;;;;;;;12.45;6.25;;;;;;;;;;5043530;28;20404;-79
2022/12/28 01:32:14;;;;;;;10.15;6.22;;;;;;;;;;5044316;28;20026;-79
2022/12/28 01:34:40;;;;;;;9.82;5.22;;;;;;;;;;5043617;28;20029;-79
2022/12/28 01:37:06;;;;;;;8.77;6.05;;;;;;;;;;5042294;28;20032;-79
2022/12/28 01:39:32;;;;;;;10.13;6.35;;;;;;;;;;5041881;28;20079;-79
2022/12/28 01:41:58;;;;;;;13.13;6.18;;;;;;;;;;5041623;28;20036;-79
2022/12/28 01:44:24;;;;;;;9.43;6.18;;;;;;;;;;5040573;28;20036;-79
2022/12/28 01:46:55;;;;;;;7.70;5.70;;;;;;;;;;5038888;28;20387;-78
2022/12/28 01:49:33;;;;;;;9.43;5.30;;;;;;;;;;5039436;28;20029;-78
2022/12/28 01:51:59;;;;;;;9.25;6.28;;;;;;;;;;5038993;28;20030;-78
2022/12/28 01:54:27;;;;;;;12.57;6.53;;;;;;;;;;5039106;28;20036;-78
2022/12/28 01:56:53;;;;;;;8.63;6.20;;;;;;;;;;5038729;28;20096;-79
2022/12/28 01:59:21;;;;;;;10.15;5.68;;;;;;;;;;5037812;28;20049;-78
2022/12/28 02:01:48;;;;;;;8.60;5.70;;;;;;;;;;5038020;28;20063;-78
2022/12/28 02:04:14;;;;;;;8.20;6.10;;;;;;;;;;5038194;28;20038;-79
2022/12/28 02:06:40;;;;;;;10.20;5.63;;;;;;;;;;5037545;28;20033;-78
2022/12/28 02:09:11;;;;;;;10.63;5.57;;;;;;;;;;5037582;28;20021;-78
2022/12/28 02:11:37;;;;;;;7.90;5.35;;;;;;;;;;5037696;28;20029;-78
2022/12/28 02:14:04;;;;;;;13.43;5.72;;;;;;;;;;5036744;28;20033;-78
2022/12/28 02:16:37;;;;;;;11.73;5.60;;;;;;;;;;5036388;28;20028;-78
2022/12/28 02:19:05;;;;;;;10.23;5.60;;;;;;;;;;5036552;28;20108;-78
2022/12/28 02:21:43;;;;;;;11.07;5.82;;;;;;;;;;5036667;28;20029;-78
2022/12/28 02:24:21;;;;;;;13.73;6.82;;;;;;;;;;5036014;28;20033;-78
2022/12/28 02:26:52;;;;;;;10.50;6.00;;;;;;;;;;5036129;28;20455;-78
2022/12/28 02:29:18;;;;;;;10.00;6.55;;;;;;;;;;5035973;28;20161;-78
2022/12/28 02:31:50;;;;;;;10.57;6.97;;;;;;;;;;5035806;28;20105;-79
2022/12/28 02:34:23;;;;;;;11.15;6.15;;;;;;;;;;5036581;28;20032;-79
2022/12/28 02:36:53;;;;;;;11.02;5.93;;;;;;;;;;5018232;28;20034;-79
2022/12/28 02:39:23;;;;;;;12.00;6.00;;;;;;;;;;5036032;28;20028;-78
2022/12/28 02:41:49;;;;;;;9.50;7.10;;;;;;;;;;5017176;28;20099;-78
2022/12/28 02:50:05;;;;;;;13.90;6.70;;;;;;;;;;5035203;28;20085;-78
2022/12/28 02:50:07;;;;;;;11.88;6.30;;;;;;;;;;5036264;28;20024;-79
2022/12/28 02:52:49;;;;;;;10.25;7.15;;;;;;;;;;5035538;28;20060;-78
2022/12/28 02:58:35;;;;;;;12.60;7.03;;;;;;;;;;5033956;28;20056;-79
2022/12/28 03:01:21;;;;;;;13.02;7.15;;;;;;;;;;5035235;28;20033;-79
2022/12/28 03:03:47;;;;;;;14.40;7.45;;;;;;;;;;5034341;28;20484;-78
2022/12/28 03:09:23;;;;;;;17.08;8.27;;;;;;;;;;5035395;28;20072;-78
2022/12/28 03:12:10;;;;;;;12.70;7.75;;;;;;;;;;5035182;28;20037;-78
2022/12/28 03:14:40;;;;;;;11.60;7.20;;;;;;;;;;5039924;28;20033;-79
2022/12/28 03:31:07;;;;;;;13.50;7.55;;;;;;;;;;5040370;28;20036;-79
2022/12/28 03:33:38;;;;;;;14.43;7.80;;;;;;;;;;5038310;28;20052;-79
2022/12/28 03:36:12;;;;;;;12.35;8.05;;;;;;;;;;5038824;28;20064;-78
2022/12/28 03:38:47;;;;;;;15.48;8.50;;;;;;;;;;5037765;28;20021;-79
2022/12/28 03:41:17;;;;;;;13.63;7.43;;;;;;;;;;5037713;28;20100;-78
2022/12/28 03:43:50;;;;;;;14.32;8.63;;;;;;;;;;5036676;28;20032;-78
2022/12/28 03:46:22;;;;;;;16.42;8.35;;;;;;;;;;5037018;28;20060;-78
2022/12/28 03:48:48;;;;;;;15.65;8.63;;;;;;;;;;5037179;28;20053;-79
2022/12/28 03:51:16;;;;;;;11.95;8.02;;;;;;;;;;5036167;28;20021;-79
2022/12/28 03:53:44;;;;;;;13.20;8.35;;;;;;;;;;5018233;28;20033;-79
2022/12/28 03:56:14;;;;;;;15.70;7.82;;;;;;;;;;5035963;28;20041;-78
2022/12/28 03:58:41;;;;;;;13.10;8.00;;;;;;;;;;5035792;28;20057;-78
2022/12/28 04:01:06;;;;;;;13.95;8.90;;;;;;;;;;5035139;28;20041;-78
2022/12/28 04:03:33;;;;;;;10.68;7.55;;;;;;;;;;5034904;28;20030;-78
2022/12/28 04:05:59;;;;;;;14.27;7.80;;;;;;;;;;5037418;28;20030;-78
2022/12/28 04:08:25;;;;;;;14.18;7.88;;;;;;;;;;5038878;28;20451;-79
2022/12/28 04:10:51;;;;;;;10.73;6.60;;;;;;;;;;5039643;28;20415;-79
2022/12/28 04:13:17;;;;;;;8.60;5.82;;;;;;;;;;5041011;28;20044;-78
2022/12/28 04:15:43;;;;;;;9.10;6.88;;;;;;;;;;5041864;28;20468;-78
2022/12/28 04:18:10;;;;;;;11.57;7.53;;;;;;;;;;5041508;28;20030;-79
2022/12/28 04:20:36;;;;;;;12.50;6.88;;;;;;;;;;5022918;28;20472;-79
2022/12/28 04:23:02;;;;;;;12.23;6.60;;;;;;;;;;5041857;28;20033;-79
2022/12/28 04:25:28;;;;;;;13.07;6.80;;;;;;;;;;5041331;28;20045;-78
2022/12/28 04:27:54;;;;;;;16.08;7.38;;;;;;;;;;5041142;28;20029;-79
2022/12/28 04:30:20;;;;;;;10.75;7.43;;;;;;;;;;5040662;28;20036;-78
2022/12/28 04:32:46;;;;;;;11.93;7.50;;;;;;;;;;5023173;28;20033;-79
2022/12/28 04:35:12;;;;;;;12.48;7.28;;;;;;;;;;5040773;28;20052;-78
2022/12/28 04:37:38;;;;;;;12.18;7.57;;;;;;;;;;5041206;28;20449;-79
2022/12/28 04:40:04;;;;;;;12.27;7.53;;;;;;;;;;5039548;28;20056;-79
2022/12/28 04:42:31;;;;;;;13.32;7.68;;;;;;;;;;5040195;28;20030;-79
2022/12/28 04:44:57;;;;;;;14.95;7.75;;;;;;;;;;5039724;28;20112;-78
2022/12/28 04:47:23;;;;;;;16.52;7.40;;;;;;;;;;5039057;28;20033;-78
2022/12/28 04:49:49;;;;;;;11.95;7.20;;;;;;;;;;5038601;28;20025;-78
2022/12/28 04:52:15;;;;;;;14.05;7.55;;;;;;;;;;5038951;28;20029;-79
2022/12/28 04:54:41;;;;;;;12.93;7.38;;;;;;;;;;5039351;28;20025;-79
2022/12/28 04:57:07;;;;;;;13.77;7.25;;;;;;;;;;5038388;28;20104;-78
2022/12/28 04:59:33;;;;;;;12.50;7.13;;;;;;;;;;5027828;28;20061;-78
2022/12/28 05:01:59;;;;;;;17.90;7.28;;;;;;;;;;5017754;28;20030;-79
2022/12/28 05:04:25;;;;;;;12.73;6.43;;;;;;;;;;5018412;28;20030;-78
2022/12/28 05:06:51;;;;;;;13.65;6.85;;;;;;;;;;5018302;28;20030;-79
2022/12/28 05:09:18;;;;;;;20.20;6.68;;;;;;;;;;5018368;28;20080;-78
2022/12/28 05:11:44;;;;;;;16.30;7.07;;;;;;;;;;5018453;28;20081;-79
2022/12/28 05:14:10;;;;;;;9.70;6.03;;;;;;;;;;5018500;28;20056;-79
2022/12/28 05:16:36;;;;;;;16.38;6.53;;;;;;;;;;4999799;28;20031;-79
2022/12/28 05:19:02;;;;;;;10.30;4.85;;;;;;;;;;5018228;28;20032;-78
2022/12/28 05:21:28;;;;;;;7.00;4.50;;;;;;;;;;5018574;28;20500;-79
2022/12/28 05:23:54;;;;;;;13.13;4.20;;;;;;;;;;5018193;28;20029;-79
2022/12/28 05:26:22;;;;;;;9.50;3.92;;;;;;;;;;5018396;28;20033;-79
2022/12/28 05:28:48;;;;;;;9.15;4.10;;;;;;;;;;5018409;28;20101;-79
2022/12/28 05:31:15;;;;;;;9.82;3.40;;;;;;;;;;5018198;28;20026;-79
2022/12/28 05:33:42;;;;;;;6.75;3.05;;;;;;;;;;5018461;28;20028;-79
2022/12/28 05:36:11;;;;;;;7.13;3.25;;;;;;;;;;5018360;28;20029;-79
2022/12/28 05:38:38;;;;;;;7.88;3.05;;;;;;;;;;5018035;28;20032;-79
2022/12/28 05:41:07;;;;;;;7.13;3.15;;;;;;;;;;5016726;28;20032;-78
2022/12/28 05:43:33;;;;;;;7.70;3.38;;;;;;;;;;5017321;28;20107;-79
2022/12/28 05:46:01;;;;;;;12.60;3.22;;;;;;;;;;5017155;28;20065;-78
2022/12/28 05:48:29;;;;;;;11.95;3.63;;;;;;;;;;5016890;28;20022;-79
2022/12/28 05:50:57;;;;;;;7.40;3.50;;;;;;;;;;5017131;28;20512;-78
2022/12/28 05:53:24;;;;;;;4.18;3.13;;;;;;;;;;5016530;28;20041;-78
2022/12/28 05:55:50;;;;;;;10.93;4.28;;;;;;;;;;5017284;28;20022;-79
2022/12/28 05:58:15;;;;;;;7.53;3.30;;;;;;;;;;5019611;28;20139;-79
2022/12/28 06:00:43;;;;;;;7.72;2.78;;;;;;;;;;5025671;28;20030;-79
2022/12/28 06:03:09;;;;;;;10.63;3.47;;;;;;;;;;5026442;28;20026;-79
2022/12/28 06:05:35;;;;;;;11.45;3.72;;;;;;;;;;5025354;28;20108;-79
2022/12/28 06:08:01;;;;;;;5.90;3.28;;;;;;;;;;5025919;28;20025;-79
2022/12/28 06:10:27;;;;;;;5.00;3.38;;;;;;;;;;5025292;28;20129;-79
2022/12/28 06:12:53;;;;;;;9.23;3.90;;;;;;;;;;5024411;28;20029;-79
2022/12/28 06:15:19;;;;;;;6.57;3.08;;;;;;;;;;5023057;28;20525;-79
2022/12/28 06:17:45;;;;;;;5.63;3.53;;;;;;;;;;5022632;28;20030;-79
2022/12/28 06:20:11;;;;;;;10.32;3.78;;;;;;;;;;5022965;28;20028;-79
2022/12/28 06:22:37;;;;;;;6.07;2.83;;;;;;;;;;5022616;28;20084;-79
2022/12/28 06:25:03;;;;;;;5.22;3.40;;;;;;;;;;5021893;28;20034;-79
2022/12/28 06:27:29;;;;;;;6.60;3.58;;;;;;;;;;5021757;28;20112;-79
2022/12/28 06:29:55;;;;;;;8.60;4.25;;;;;;;;;;5020996;28;20058;-79
2022/12/28 06:32:21;;;;;;;7.70;3.75;;;;;;;;;;5001539;28;20022;-79
2022/12/28 06:34:47;;;;;;;9.63;3.80;;;;;;;;;;5020821;28;20082;-79
2022/12/28 06:37:13;;;;;;;11.52;4.20;;;;;;;;;;5020464;28;20500;-79
2022/12/28 06:39:38;;;;;;;8.90;3.80;;;;;;;;;;5019970;28;20080;-79
2022/12/28 06:42:04;;;;;;;11.57;4.53;;;;;;;;;;5018810;28;20451;-79
2022/12/28 06:44:30;;;;;;;9.88;3.72;;;;;;;;;;5016817;28;20369;-79
2022/12/28 06:46:56;;;;;;;14.02;3.80;;;;;;;;;;5017361;28;20077;-79
2022/12/28 06:49:22;;;;;;;10.80;4.00;;;;;;;;;;4999634;28;20041;-79
2022/12/28 06:51:48;;;;;;;12.88;4.45;;;;;;;;;;5017382;28;20026;-79
2022/12/28 06:54:14;;;;;;;15.10;4.25;;;;;;;;;;5017469;28;20057;-79
2022/12/28 06:56:40;;;;;;;11.95;3.67;;;;;;;;;;5017997;28;20095;-79
2022/12/28 06:59:06;;;;;;;17.40;4.00;;;;;;;;;;5026770;28;20049;-79
2022/12/28 07:01:37;;;;;;;18.70;4.18;;;;;;;;;;5034854;28;20400;-79
2022/12/28 07:04:04;;;;;;;8.90;3.28;;;;;;;;;;5037269;28;20033;-79
2022/12/28 07:06:33;;;;;;;12.52;4.00;;;;;;;;;;5017956;28;20029;-79
2022/12/28 07:09:01;;;;;;;17.48;3.70;;;;;;;;;;5031722;28;20025;-80
2022/12/28 07:11:27;;;;;;;15.57;3.75;;;;;;;;;;5010306;28;20094;-79
2022/12/28 07:13:53;;;;;;;14.65;3.70;;;;;;;;;;5036032;28;20503;-79
2022/12/28 07:16:20;;;;;;;14.60;3.83;;;;;;;;;;5030840;28;20030;-79
2022/12/28 07:18:47;;;;;;;18.00;3.25;;;;;;;;;;5023841;28;20099;-80
2022/12/28 07:21:15;;;;;;;16.50;4.43;;;;;;;;;;5029455;28;20037;-79
2022/12/28 07:23:41;;;;;;;11.57;4.30;;;;;;;;;;5018813;28;20124;-79
2022/12/28 07:26:08;;;;;;;12.13;3.90;;;;;;;;;;5013761;28;20424;-79
2022/12/28 07:28:41;;;;;;;10.93;3.22;;;;;;;;;;5015448;28;20026;-79
2022/12/28 07:31:08;;;;;;;8.70;3.10;;;;;;;;;;5031963;28;20025;-80
2022/12/28 07:33:35;;;;;;;14.70;3.83;;;;;;;;;;5027858;28;20017;-80
2022/12/28 07:36:01;;;;;;;12.38;3.22;;;;;;;;;;5021343;28;20424;-80
2022/12/28 07:38:28;;;;;;;12.30;3.80;;;;;;;;;;5016232;28;20445;-79
2022/12/28 07:41:01;;;;;;;8.77;3.13;;;;;;;;;;5013757;28;20040;-79
2022/12/28 07:43:28;;;;;;;9.50;3.50;;;;;;;;;;5014436;28;20026;-79
2022/12/28 07:46:02;;;;;;;8.95;3.03;;;;;;;;;;5017212;28;20094;-79
2022/12/28 07:48:30;;;;;;;9.15;4.10;;;;;;;;;;5018403;28;20034;-79
2022/12/28 07:50:56;;;;;;;10.05;2.92;;;;;;;;;;5024329;28;20156;-78
2022/12/28 07:53:22;;;;;;;13.13;3.45;;;;;;;;;;5017728;28;20060;-79
2022/12/28 07:55:54;;;;;;;11.65;3.00;;;;;;;;;;5017431;28;20103;-79
2022/12/28 07:58:20;;;;;;;7.70;3.20;;;;;;;;;;5017199;28;20042;-79
2022/12/28 08:00:46;;;;;;;11.05;2.92;;;;;;;;;;5016860;28;20022;-79
2022/12/28 08:03:12;;;;;;;9.73;2.97;;;;;;;;;;5032360;28;20487;-79
2022/12/28 08:05:38;;;;;;;11.98;2.50;;;;;;;;;;5036508;28;20030;-79
2022/12/28 08:08:05;;;;;;;8.52;2.65;;;;;;;;;;5036988;28;20111;-79
2022/12/28 08:10:31;;;;;;;9.70;2.80;;;;;;;;;;5036477;28;20049;-79
2022/12/28 08:12:58;;;;;;;9.85;2.90;;;;;;;;;;5036759;28;20031;-80
2022/12/28 08:15:24;;;;;;;5.32;2.72;;;;;;;;;;5036359;28;20091;-80
2022/12/28 08:17:50;;;;;;;10.00;2.90;;;;;;;;;;5036386;28;20060;-80
2022/12/28 08:20:16;;;;;;;6.95;2.97;;;;;;;;;;5036388;28;20021;-80
2022/12/28 08:22:42;;;;;;;5.60;2.53;;;;;;;;;;5036439;28;20027;-79
2022/12/28 08:25:09;;;;;;;4.20;2.10;;;;;;;;;;5035964;28;20029;-79
2022/12/28 08:27:35;;;;;;;5.95;2.38;;;;;;;;;;5018408;28;20113;-79
2022/12/28 08:30:00;;;;;;;5.90;2.25;;;;;;;;;;5036864;28;20064;-79
2022/12/28 08:32:26;;;;;;;6.78;2.50;;;;;;;;;;5019651;28;20084;-80
2022/12/28 08:34:52;;;;;;;4.05;1.92;;;;;;;;;;5016162;28;20460;-80
2022/12/28 08:37:19;;;;;;;5.10;2.20;;;;;;;;;;5026934;28;20018;-80
2022/12/28 08:39:45;;;;;;;7.68;2.58;;;;;;;;;;5034155;28;20024;-80
2022/12/28 08:42:10;;;;;;;7.63;2.38;;;;;;;;;;5037642;28;20033;-80
2022/12/28 08:44:36;;;;;;;6.43;2.35;;;;;;;;;;5036000;28;20025;-80
2022/12/28 08:47:02;;;;;;;7.75;2.40;;;;;;;;;;5036273;28;20391;-80
2022/12/28 08:49:28;;;;;;;8.05;1.98;;;;;;;;;;5035614;28;20049;-80
2022/12/28 08:51:54;;;;;;;4.50;1.27;;;;;;;;;;5035849;28;20030;-80
2022/12/28 08:54:20;;;;;;;3.50;2.13;;;;;;;;;;5035879;28;20484;-80
2022/12/28 08:56:46;;;;;;;3.35;1.80;;;;;;;;;;5035278;28;20093;-80
2022/12/28 08:59:14;;;;;;;4.55;2.28;;;;;;;;;;5037182;28;20132;-80
2022/12/28 09:01:40;;;;;;;4.82;1.90;;;;;;;;;;5028501;28;20064;-79
2022/12/28 09:04:08;;;;;;;5.07;2.08;;;;;;;;;;5020219;28;20424;-80
2022/12/28 09:06:35;;;;;;;4.15;1.65;;;;;;;;;;5016021;28;20029;-80
2022/12/28 09:09:02;;;;;;;5.43;2.10;;;;;;;;;;5015836;28;20485;-80
2022/12/28 09:11:29;;;;;;;3.97;1.70;;;;;;;;;;5015677;28;20133;-80
2022/12/28 09:13:55;;;;;;;3.65;2.03;;;;;;;;;;5016450;28;20052;-80
2022/12/28 09:16:24;;;;;;;4.05;1.65;;;;;;;;;;5025114;28;20025;-80
2022/12/28 09:18:53;;;;;;;2.72;1.45;;;;;;;;;;5019709;28;20030;-80
2022/12/28 09:21:20;;;;;;;4.20;1.25;;;;;;;;;;5022859;28;20026;-80
2022/12/28 09:23:46;;;;;;;1.50;1.10;;;;;;;;;;5023635;28;20781;-80
2022/12/28 09:26:13;;;;;;;3.33;1.00;;;;;;;;;;5020020;28;20026;-80
2022/12/28 09:28:43;;;;;;;1.00;0.80;;;;;;;;;;5035650;28;20022;-80
2022/12/28 09:31:09;;;;;;;2.20;0.98;;;;;;;;;;5035403;28;20037;-79
2022/12/28 09:36:21;;;;;;;4.43;1.20;;;;;;;;;;5019566;28;20037;-80
2022/12/28 09:38:47;;;;;;;2.53;1.08;;;;;;;;;;5015995;28;20032;-80
2022/12/28 09:41:16;;;;;;;3.00;1.05;;;;;;;;;;5035199;28;20072;-79
2022/12/28 09:43:42;;;;;;;2.47;1.73;;;;;;;;;;5036000;28;20022;-80
2022/12/28 09:46:09;;;;;;;3.13;1.50;;;;;;;;;;5026161;28;20022;-80
2022/12/28 09:48:35;;;;;;;4.18;1.58;;;;;;;;;;5043072;28;20480;-80
2022/12/28 09:51:03;;;;;;;2.42;1.52;;;;;;;;;;5040851;28;20026;-80
2022/12/28 09:53:34;;;;;;;3.75;2.00;;;;;;;;;;5037344;28;20017;-80
2022/12/28 09:56:00;;;;;;;5.90;2.42;;;;;;;;;;5016288;28;20133;-79
2022/12/28 09:58:26;;;;;;;4.93;2.45;;;;;;;;;;5015129;28;20046;-80
2022/12/28 10:00:55;;;;;;;3.22;2.00;;;;;;;;;;4997254;28;20053;-80
2022/12/28 10:03:26;;;;;;;3.60;2.10;;;;;;;;;;5014788;28;20477;-80
2022/12/28 10:05:52;;;;;;;4.43;2.00;;;;;;;;;;5014822;28;20076;-80
2022/12/28 10:08:20;;;;;;;4.25;1.98;;;;;;;;;;5013958;28;20068;-80
2022/12/28 10:10:46;;;;;;;3.45;2.17;;;;;;;;;;5014575;28;20091;-80
2022/12/28 10:13:16;;;;;;;5.93;2.38;;;;;;;;;;5014853;28;20056;-80
2022/12/28 10:15:42;;;;;;;2.80;2.03;;;;;;;;;;5014436;28;20079;-80
2022/12/28 10:18:08;;;;;;;8.90;2.85;;;;;;;;;;5014574;28;20361;-80
2022/12/28 10:20:34;;;;;;;9.90;3.28;;;;;;;;;;5014980;28;20033;-80
2022/12/28 10:23:01;;;;;;;6.30;3.58;;;;;;;;;;5014667;28;20029;-80
2022/12/28 10:25:27;;;;;;;10.02;4.20;;;;;;;;;;5000083;28;20022;-80
2022/12/28 10:27:53;;;;;;;7.95;5.15;;;;;;;;;;4997719;28;20040;-80
2022/12/28 10:30:22;;;;;;;9.32;5.72;;;;;;;;;;5029553;28;20021;-80
2022/12/28 10:32:58;;;;;;;11.82;5.82;;;;;;;;;;5041302;28;20372;-80
2022/12/28 10:35:38;;;;;;;14.95;6.10;;;;;;;;;;5044342;28;20423;-80
2022/12/28 10:38:06;;;;;;;13.45;6.20;;;;;;;;;;5038715;28;20071;-80
2022/12/28 10:40:33;;;;;;;16.95;7.00;;;;;;;;;;5034345;28;20112;-80
2022/12/28 10:42:59;;;;;;;19.08;8.05;;;;;;;;;;5029186;28;20076;-80
2022/12/28 10:45:25;;;;;;;12.20;5.95;;;;;;;;;;5014273;28;20040;-80
2022/12/28 10:47:53;;;;;;;14.02;6.03;;;;;;;;;;5014457;28;20116;-80
2022/12/28 10:50:39;;;;;;;14.93;6.47;;;;;;;;;;4996530;28;20029;-80
2022/12/28 10:53:15;;;;;;;13.32;5.82;;;;;;;;;;5014221;28;20033;-80
2022/12/28 10:55:41;;;;;;;11.23;6.00;;;;;;;;;;4996761;28;20022;-80
2022/12/28 10:58:15;;;;;;;11.95;7.05;;;;;;;;;;5009277;28;20479;-80
2022/12/28 11:00:41;;;;;;;14.70;6.47;;;;;;;;;;5014929;28;20060;-80
2022/12/28 11:03:17;;;;;;;11.40;5.10;;;;;;;;;;5015260;28;20026;-80
2022/12/28 11:05:43;;;;;;;11.93;5.10;;;;;;;;;;5028455;28;20392;-80
2022/12/28 11:08:13;;;;;;;11.85;4.75;;;;;;;;;;5037508;28;20029;-80
2022/12/28 11:10:39;;;;;;;12.77;5.00;;;;;;;;;;5018657;28;20022;-80
2022/12/28 11:13:09;;;;;;;12.30;5.00;;;;;;;;;;5021786;28;20105;-80
2022/12/28 11:15:34;;;;;;;8.07;4.15;;;;;;;;;;5034560;28;20468;-79
2022/12/28 11:18:02;;;;;;;10.18;4.60;;;;;;;;;;5016582;28;20080;-80
2022/12/28 11:20:31;;;;;;;11.90;4.68;;;;;;;;;;5037650;28;20053;-79
2022/12/28 11:22:57;;;;;;;9.55;5.10;;;;;;;;;;5038006;28;20104;-80
2022/12/28 11:25:29;;;;;;;11.20;5.03;;;;;;;;;;5021067;28;20034;-80
2022/12/28 11:27:56;;;;;;;9.98;4.82;;;;;;;;;;5033895;28;20040;-80
2022/12/28 11:30:22;;;;;;;8.90;4.50;;;;;;;;;;5037751;28;20021;-80
2022/12/28 11:32:52;;;;;;;9.00;4.03;;;;;;;;;;5048497;28;20080;-80
2022/12/28 11:35:20;;;;;;;9.20;4.43;;;;;;;;;;5049954;28;20037;-80
2022/12/28 11:37:50;;;;;;;9.25;4.15;;;;;;;;;;5037036;28;20037;-81
2022/12/28 11:40:35;;;;;;;10.60;4.10;;;;;;;;;;5029677;28;20018;-81
2022/12/28 11:43:01;;;;;;;6.88;3.50;;;;;;;;;;5028864;28;20029;-81
2022/12/28 11:45:46;;;;;;;10.85;4.90;;;;;;;;;;5013349;28;20030;-80
2022/12/28 11:48:30;;;;;;;7.00;4.53;;;;;;;;;;5029406;28;20090;-81
2022/12/28 11:51:02;;;;;;;7.78;4.35;;;;;;;;;;5029387;28;20022;-80
2022/12/28 11:53:32;;;;;;;5.80;3.55;;;;;;;;;;5024409;28;20091;-80
2022/12/28 11:56:04;;;;;;;5.63;3.80;;;;;;;;;;5023493;28;20053;-80
2022/12/28 11:58:30;;;;;;;5.40;3.28;;;;;;;;;;5022596;28;20280;-80
2022/12/28 12:00:58;;;;;;;6.95;3.63;;;;;;;;;;5030590;28;20081;-80
2022/12/28 12:03:43;;;;;;;3.38;2.80;;;;;;;;;;5045243;28;20085;-80
2022/12/28 12:06:09;;;;;;;3.63;3.08;;;;;;;;;;5039889;28;20034;-80
2022/12/28 12:08:40;;;;;;;5.82;3.83;;;;;;;;;;5036522;28;20033;-80
2022/12/28 12:11:18;;;;;;;6.20;3.60;;;;;;;;;;5044478;28;20147;-80
2022/12/28 12:13:47;;;;;;;4.45;3.22;;;;;;;;;;5049980;28;20021;-80
2022/12/28 12:16:28;;;;;;;4.70;3.90;;;;;;;;;;5031076;28;20025;-80
2022/12/28 12:18:55;;;;;;;4.13;3.58;;;;;;;;;;5048560;28;20029;-80
2022/12/28 12:21:21;;;;;;;4.35;3.15;;;;;;;;;;5047541;28;20423;-80
2022/12/28 12:23:52;;;;;;;4.32;3.28;;;;;;;;;;5047418;28;20025;-80
2022/12/28 12:26:36;;;;;;;3.67;3.30;;;;;;;;;;5044220;28;20526;-80
2022/12/28 12:29:06;;;;;;;4.55;3.92;;;;;;;;;;5036652;28;20044;-80
2022/12/28 12:31:37;;;;;;;6.17;5.07;;;;;;;;;;5040730;28;20021;-80
2022/12/28 12:34:10;;;;;;;5.57;4.97;;;;;;;;;;5038074;28;20266;-80
2022/12/28 12:36:35;;;;;;;7.25;5.72;;;;;;;;;;5018831;28;20380;-81
2022/12/28 12:39:12;;;;;;;7.32;5.60;;;;;;;;;;5043575;28;20025;-80
2022/12/28 12:41:38;;;;;;;6.43;5.68;;;;;;;;;;5041399;28;20136;-80
2022/12/28 12:44:12;;;;;;;7.30;5.28;;;;;;;;;;5018475;28;20480;-80
2022/12/28 12:46:56;;;;;;;8.10;5.47;;;;;;;;;;5041960;28;20033;-80
2022/12/28 12:49:25;;;;;;;7.53;5.38;;;;;;;;;;5036805;28;20021;-80
2022/12/28 12:52:05;;;;;;;9.70;6.90;;;;;;;;;;5035929;28;20029;-80
2022/12/28 12:54:47;;;;;;;11.75;7.93;;;;;;;;;;5036287;28;20112;-80
2022/12/28 12:57:17;;;;;;;8.88;6.07;;;;;;;;;;5036136;28;20040;-80
2022/12/28 12:59:52;;;;;;;6.68;5.72;;;;;;;;;;5035575;28;20052;-80
2022/12/28 13:02:30;;;;;;;7.45;6.00;;;;;;;;;;5043246;28;20048;-80
2022/12/28 13:04:57;;;;;;;6.03;5.43;;;;;;;;;;5035892;28;20025;-80
2022/12/28 13:07:25;;;;;;;10.13;4.95;;;;;;;;;;5022281;28;20547;-81
2022/12/28 13:09:52;;;;;;;6.47;5.38;;;;;;;;;;5041333;28;20025;-80
2022/12/28 13:12:19;;;;;;;8.88;5.40;;;;;;;;;;5035781;28;20026;-80
2022/12/28 13:14:51;;;;;;;6.38;4.80;;;;;;;;;;5042247;28;20049;-80
2022/12/28 13:17:18;;;;;;;7.18;4.78;;;;;;;;;;5035680;28;20025;-80
2022/12/28 13:19:45;;;;;;;7.40;4.82;;;;;;;;;;5038774;28;20022;-80
2022/12/28 13:22:30;;;;;;;5.85;4.38;;;;;;;;;;5027412;28;20463;-80
2022/12/28 13:24:57;;;;;;;4.22;3.13;;;;;;;;;;5046582;28;20029;-81
2022/12/28 13:27:25;;;;;;;6.18;2.75;;;;;;;;;;5048186;28;20033;-80
2022/12/28 13:29:52;;;;;;;2.70;2.00;;;;;;;;;;5046557;28;20389;-80
2022/12/28 13:32:39;;;;;;;4.75;1.80;;;;;;;;;;5045503;28;20104;-80
2022/12/28 13:35:16;;;;;;;4.68;1.95;;;;;;;;;;5048221;28;20036;-80
2022/12/28 13:37:42;;;;;;;5.18;2.03;;;;;;;;;;5044500;28;20465;-80
2022/12/28 13:40:09;;;;;;;5.32;2.50;;;;;;;;;;5043539;28;20096;-80
2022/12/28 13:42:48;;;;;;;3.45;2.42;;;;;;;;;;5042637;28;20025;-80
2022/12/28 13:45:16;;;;;;;3.83;1.50;;;;;;;;;;5041895;28;20052;-80
2022/12/28 13:47:46;;;;;;;4.70;1.50;;;;;;;;;;5025670;28;20063;-80
2022/12/28 13:50:13;;;;;;;4.88;1.80;;;;;;;;;;5046807;28;20021;-80
2022/12/28 13:52:50;;;;;;;2.20;1.80;;;;;;;;;;5041775;28;20070;-80
2022/12/28 13:55:18;;;;;;;6.80;2.00;;;;;;;;;;5041437;28;20030;-81
2022/12/28 13:57:46;;;;;;;2.70;2.20;;;;;;;;;;5040362;28;20032;-80
2022/12/28 14:00:15;;;;;;;4.28;2.40;;;;;;;;;;5035207;28;20041;-80
2022/12/28 14:02:41;;;;;;;6.97;2.50;;;;;;;;;;5039076;28;20037;-80
2022/12/28 14:05:14;;;;;;;6.13;2.50;;;;;;;;;;5036499;28;20078;-80
2022/12/28 14:07:40;;;;;;;5.50;3.03;;;;;;;;;;5011865;28;20163;-80
2022/12/28 14:10:06;;;;;;;3.85;2.42;;;;;;;;;;5033856;28;20036;-80
2022/12/28 14:12:32;;;;;;;4.97;3.22;;;;;;;;;;5037477;28;20384;-80
2022/12/28 14:14:58;;;;;;;7.68;3.50;;;;;;;;;;5036929;28;20033;-80
2022/12/28 14:17:25;;;;;;;8.52;3.53;;;;;;;;;;5021363;28;20027;-81
2022/12/28 14:19:53;;;;;;;8.30;3.53;;;;;;;;;;5042586;28;20021;-81
2022/12/28 14:22:32;;;;;;;5.07;3.33;;;;;;;;;;5026467;28;20033;-81
2022/12/28 14:25:07;;;;;;;6.75;3.30;;;;;;;;;;5022387;28;20034;-80
2022/12/28 14:27:35;;;;;;;5.38;3.63;;;;;;;;;;5028497;28;20056;-80
2022/12/28 14:30:01;;;;;;;3.78;3.25;;;;;;;;;;5029237;28;20048;-80
2022/12/28 14:32:27;;;;;;;8.68;3.40;;;;;;;;;;5014998;28;20052;-80
2022/12/28 14:34:58;;;;;;;6.53;3.50;;;;;;;;;;5019264;28;20479;-80
2022/12/28 14:37:26;;;;;;;8.82;3.47;;;;;;;;;;5024748;28;20028;-80
2022/12/28 14:39:52;;;;;;;10.23;3.50;;;;;;;;;;5004844;28;20465;-80
2022/12/28 14:42:20;;;;;;;6.10;3.00;;;;;;;;;;5019129;28;20080;-80
2022/12/28 14:44:46;;;;;;;7.65;3.58;;;;;;;;;;4996857;28;20075;-80
2022/12/28 14:47:30;;;;;;;6.75;3.58;;;;;;;;;;5025293;28;20085;-80
2022/12/28 14:50:00;;;;;;;6.93;3.65;;;;;;;;;;5023211;28;20480;-80
2022/12/28 14:52:46;;;;;;;8.50;3.78;;;;;;;;;;5016426;28;20026;-80
2022/12/28 14:55:38;;;;;;;10.82;3.80;;;;;;;;;;5019747;28;20026;-80
2022/12/28 14:58:12;;;;;;;10.23;3.35;;;;;;;;;;4984361;28;20115;-81
2022/12/28 15:00:38;;;;;;;7.03;3.83;;;;;;;;;;5020148;28;20404;-80
2022/12/28 15:03:20;;;;;;;8.70;3.35;;;;;;;;;;5027729;28;20075;-80
2022/12/28 15:05:50;;;;;;;5.28;3.38;;;;;;;;;;5032885;28;20036;-80
2022/12/28 15:08:16;;;;;;;;;;;;;;;;;;5040345;28;20073;-81
2022/12/28 15:10:46;;;;;;;6.57;3.80;;;;;;;;;;5032252;28;20441;-81
2022/12/28 15:13:12;;;;;;;9.85;3.30;;;;;;;;;;5033308;28;20025;-81